sensor_id;sensor_type;location;lat;lon;timestamp;P1;durP1;ratioP1;P2;durP2;ratioP2
76495;SDS011;65329;52.544;4.662;2023-03-01T00:01:12;18.85;;;10.02;;
76495;SDS011;65329;52.544;4.662;2023-03-01T00:03:41;17.58;;;8.93;;
76495;SDS011;65329;52.544;4.662;2023-03-01T00:06:08;15.68;;;8.88;;
76495;SDS011;65329;52.544;4.662;2023-03-01T00:08:36;19.60;;;10.00;;
76495;SDS011;65329;52.544;4.662;2023-03-01T00:11:05;19.25;;;9.73;;
76495;SDS011;65329;52.544;4.662;2023-03-01T00:13:35;27.33;;;13.88;;
76495;SDS011;65329;52.544;4.662;2023-03-01T00:16:11;19.88;;;11.07;;
76495;SDS011;65329;52.544;4.662;2023-03-01T00:18:40;19.58;;;11.23;;
76495;SDS011;65329;52.544;4.662;2023-03-01T00:21:07;15.18;;;8.57;;
76495;SDS011;65329;52.544;4.662;2023-03-01T00:23:35;16.80;;;8.40;;
76495;SDS011;65329;52.544;4.662;2023-03-01T00:26:05;17.55;;;8.77;;
76495;SDS011;65329;52.544;4.662;2023-03-01T00:28:34;15.73;;;8.35;;
76495;SDS011;65329;52.544;4.662;2023-03-01T00:31:20;16.50;;;8.70;;
76495;SDS011;65329;52.544;4.662;2023-03-01T00:33:48;17.38;;;8.55;;
76495;SDS011;65329;52.544;4.662;2023-03-01T00:36:20;15.75;;;8.18;;
76495;SDS011;65329;52.544;4.662;2023-03-01T00:38:47;15.13;;;8.35;;
76495;SDS011;65329;52.544;4.662;2023-03-01T00:41:15;18.00;;;8.82;;
76495;SDS011;65329;52.544;4.662;2023-03-01T00:43:44;16.05;;;7.85;;
76495;SDS011;65329;52.544;4.662;2023-03-01T00:46:13;16.33;;;8.60;;
76495;SDS011;65329;52.544;4.662;2023-03-01T00:48:42;14.68;;;7.47;;
76495;SDS011;65329;52.544;4.662;2023-03-01T00:51:16;14.50;;;8.02;;
76495;SDS011;65329;52.544;4.662;2023-03-01T00:53:51;15.60;;;8.73;;
76495;SDS011;65329;52.544;4.662;2023-03-01T00:56:19;16.90;;;8.35;;
76495;SDS011;65329;52.544;4.662;2023-03-01T00:58:47;16.33;;;8.82;;
76495;SDS011;65329;52.544;4.662;2023-03-01T01:01:18;19.40;;;9.93;;
76495;SDS011;65329;52.544;4.662;2023-03-01T01:03:53;19.48;;;9.57;;
76495;SDS011;65329;52.544;4.662;2023-03-01T01:06:23;17.40;;;8.95;;
76495;SDS011;65329;52.544;4.662;2023-03-01T01:08:52;16.05;;;9.23;;
76495;SDS011;65329;52.544;4.662;2023-03-01T01:11:21;16.80;;;8.52;;
76495;SDS011;65329;52.544;4.662;2023-03-01T01:13:50;17.08;;;9.10;;
76495;SDS011;65329;52.544;4.662;2023-03-01T01:16:17;15.27;;;8.20;;
76495;SDS011;65329;52.544;4.662;2023-03-01T01:18:45;15.88;;;8.63;;
76495;SDS011;65329;52.544;4.662;2023-03-01T01:21:13;18.38;;;8.98;;
76495;SDS011;65329;52.544;4.662;2023-03-01T01:23:43;15.90;;;8.27;;
76495;SDS011;65329;52.544;4.662;2023-03-01T01:26:13;16.63;;;9.02;;
76495;SDS011;65329;52.544;4.662;2023-03-01T01:28:43;13.85;;;8.20;;
76495;SDS011;65329;52.544;4.662;2023-03-01T01:31:10;17.48;;;8.18;;
76495;SDS011;65329;52.544;4.662;2023-03-01T01:33:37;17.63;;;9.27;;
76495;SDS011;65329;52.544;4.662;2023-03-01T01:36:05;13.73;;;7.70;;
76495;SDS011;65329;52.544;4.662;2023-03-01T01:38:33;18.45;;;8.88;;
76495;SDS011;65329;52.544;4.662;2023-03-01T01:41:00;16.27;;;8.90;;
76495;SDS011;65329;52.544;4.662;2023-03-01T01:43:28;18.52;;;9.55;;
76495;SDS011;65329;52.544;4.662;2023-03-01T01:45:58;19.60;;;9.38;;
76495;SDS011;65329;52.544;4.662;2023-03-01T01:48:32;22.05;;;11.32;;
76495;SDS011;65329;52.544;4.662;2023-03-01T01:51:13;15.20;;;9.07;;
76495;SDS011;65329;52.544;4.662;2023-03-01T01:53:45;17.73;;;9.80;;
76495;SDS011;65329;52.544;4.662;2023-03-01T01:56:16;21.33;;;10.30;;
76495;SDS011;65329;52.544;4.662;2023-03-01T01:58:44;18.55;;;9.57;;
76495;SDS011;65329;52.544;4.662;2023-03-01T02:01:13;18.25;;;10.07;;
76495;SDS011;65329;52.544;4.662;2023-03-01T02:03:40;20.08;;;8.55;;
76495;SDS011;65329;52.544;4.662;2023-03-01T02:08:36;18.63;;;8.80;;
76495;SDS011;65329;52.544;4.662;2023-03-01T02:11:08;18.08;;;9.18;;
76495;SDS011;65329;52.544;4.662;2023-03-01T02:13:37;18.13;;;9.43;;
76495;SDS011;65329;52.544;4.662;2023-03-01T02:16:05;16.20;;;8.88;;
76495;SDS011;65329;52.544;4.662;2023-03-01T02:18:35;14.55;;;8.13;;
76495;SDS011;65329;52.544;4.662;2023-03-01T02:21:08;18.65;;;8.98;;
76495;SDS011;65329;52.544;4.662;2023-03-01T02:23:36;16.95;;;8.93;;
76495;SDS011;65329;52.544;4.662;2023-03-01T02:28:54;18.90;;;9.82;;
76495;SDS011;65329;52.544;4.662;2023-03-01T02:31:21;15.93;;;8.60;;
76495;SDS011;65329;52.544;4.662;2023-03-01T02:34:08;19.33;;;10.32;;
76495;SDS011;65329;52.544;4.662;2023-03-01T02:37:01;16.58;;;9.13;;
76495;SDS011;65329;52.544;4.662;2023-03-01T02:39:35;16.95;;;9.43;;
76495;SDS011;65329;52.544;4.662;2023-03-01T02:42:12;20.65;;;10.13;;
76495;SDS011;65329;52.544;4.662;2023-03-01T02:44:41;15.13;;;8.75;;
76495;SDS011;65329;52.544;4.662;2023-03-01T02:47:07;19.15;;;9.32;;
76495;SDS011;65329;52.544;4.662;2023-03-01T02:49:35;15.25;;;8.55;;
76495;SDS011;65329;52.544;4.662;2023-03-01T02:57:20;14.45;;;7.43;;
76495;SDS011;65329;52.544;4.662;2023-03-01T02:59:49;15.73;;;8.40;;
76495;SDS011;65329;52.544;4.662;2023-03-01T03:02:20;17.80;;;9.07;;
76495;SDS011;65329;52.544;4.662;2023-03-01T03:05:23;17.20;;;8.93;;
76495;SDS011;65329;52.544;4.662;2023-03-01T03:07:55;16.90;;;8.27;;
76495;SDS011;65329;52.544;4.662;2023-03-01T03:10:25;17.08;;;8.80;;
76495;SDS011;65329;52.544;4.662;2023-03-01T03:12:56;14.25;;;8.68;;
76495;SDS011;65329;52.544;4.662;2023-03-01T03:15:26;16.95;;;8.63;;
76495;SDS011;65329;52.544;4.662;2023-03-01T03:17:54;18.30;;;8.70;;
76495;SDS011;65329;52.544;4.662;2023-03-01T03:20:26;19.48;;;8.95;;
76495;SDS011;65329;52.544;4.662;2023-03-01T03:22:54;15.65;;;8.60;;
76495;SDS011;65329;52.544;4.662;2023-03-01T03:25:23;17.23;;;8.80;;
76495;SDS011;65329;52.544;4.662;2023-03-01T03:27:51;18.92;;;10.13;;
76495;SDS011;65329;52.544;4.662;2023-03-01T03:30:26;17.70;;;9.15;;
76495;SDS011;65329;52.544;4.662;2023-03-01T03:32:57;20.67;;;8.95;;
76495;SDS011;65329;52.544;4.662;2023-03-01T03:35:26;16.35;;;8.63;;
76495;SDS011;65329;52.544;4.662;2023-03-01T03:37:54;16.40;;;8.30;;
76495;SDS011;65329;52.544;4.662;2023-03-01T03:40:31;16.38;;;8.13;;
76495;SDS011;65329;52.544;4.662;2023-03-01T03:43:01;18.35;;;8.38;;
76495;SDS011;65329;52.544;4.662;2023-03-01T03:45:29;17.55;;;9.05;;
76495;SDS011;65329;52.544;4.662;2023-03-01T03:47:56;20.65;;;9.35;;
76495;SDS011;65329;52.544;4.662;2023-03-01T03:50:23;24.67;;;11.43;;
76495;SDS011;65329;52.544;4.662;2023-03-01T03:52:50;29.48;;;11.82;;
76495;SDS011;65329;52.544;4.662;2023-03-01T03:55:17;25.52;;;11.35;;
76495;SDS011;65329;52.544;4.662;2023-03-01T03:57:46;30.00;;;12.00;;
76495;SDS011;65329;52.544;4.662;2023-03-01T04:00:18;27.70;;;12.38;;
76495;SDS011;65329;52.544;4.662;2023-03-01T04:02:47;31.90;;;12.32;;
76495;SDS011;65329;52.544;4.662;2023-03-01T04:05:16;30.85;;;12.13;;
76495;SDS011;65329;52.544;4.662;2023-03-01T04:07:45;26.95;;;10.93;;
76495;SDS011;65329;52.544;4.662;2023-03-01T04:10:15;25.13;;;11.10;;
76495;SDS011;65329;52.544;4.662;2023-03-01T04:12:43;18.10;;;9.15;;
76495;SDS011;65329;52.544;4.662;2023-03-01T04:15:25;18.10;;;9.00;;
76495;SDS011;65329;52.544;4.662;2023-03-01T04:17:54;14.77;;;8.43;;
76495;SDS011;65329;52.544;4.662;2023-03-01T04:20:26;14.18;;;7.43;;
76495;SDS011;65329;52.544;4.662;2023-03-01T04:22:58;14.45;;;8.25;;
76495;SDS011;65329;52.544;4.662;2023-03-01T04:25:52;15.60;;;8.35;;
76495;SDS011;65329;52.544;4.662;2023-03-01T04:30:52;13.10;;;7.47;;
76495;SDS011;65329;52.544;4.662;2023-03-01T04:33:20;16.63;;;8.35;;
76495;SDS011;65329;52.544;4.662;2023-03-01T04:35:48;17.65;;;8.75;;
76495;SDS011;65329;52.544;4.662;2023-03-01T04:38:16;13.43;;;7.90;;
76495;SDS011;65329;52.544;4.662;2023-03-01T04:40:44;15.20;;;7.88;;
76495;SDS011;65329;52.544;4.662;2023-03-01T04:43:12;18.13;;;9.00;;
76495;SDS011;65329;52.544;4.662;2023-03-01T04:45:42;14.43;;;7.75;;
76495;SDS011;65329;52.544;4.662;2023-03-01T04:48:08;14.63;;;7.90;;
76495;SDS011;65329;52.544;4.662;2023-03-01T04:50:35;16.27;;;8.15;;
76495;SDS011;65329;52.544;4.662;2023-03-01T04:53:02;15.50;;;8.65;;
76495;SDS011;65329;52.544;4.662;2023-03-01T04:55:29;13.68;;;7.70;;
76495;SDS011;65329;52.544;4.662;2023-03-01T04:57:56;14.43;;;8.07;;
76495;SDS011;65329;52.544;4.662;2023-03-01T05:00:23;15.30;;;8.40;;
76495;SDS011;65329;52.544;4.662;2023-03-01T05:05:26;18.92;;;8.82;;
76495;SDS011;65329;52.544;4.662;2023-03-01T05:08:00;13.68;;;8.20;;
76495;SDS011;65329;52.544;4.662;2023-03-01T05:10:30;12.98;;;7.38;;
76495;SDS011;65329;52.544;4.662;2023-03-01T05:12:58;13.25;;;7.13;;
76495;SDS011;65329;52.544;4.662;2023-03-01T05:15:26;12.15;;;7.30;;
76495;SDS011;65329;52.544;4.662;2023-03-01T05:17:55;13.40;;;7.50;;
76495;SDS011;65329;52.544;4.662;2023-03-01T05:20:27;14.05;;;7.38;;
76495;SDS011;65329;52.544;4.662;2023-03-01T05:22:58;13.52;;;7.97;;
76495;SDS011;65329;52.544;4.662;2023-03-01T05:25:26;16.00;;;7.80;;
76495;SDS011;65329;52.544;4.662;2023-03-01T05:27:53;17.92;;;8.38;;
76495;SDS011;65329;52.544;4.662;2023-03-01T05:30:20;17.75;;;9.40;;
76495;SDS011;65329;52.544;4.662;2023-03-01T05:32:48;20.50;;;9.63;;
76495;SDS011;65329;52.544;4.662;2023-03-01T05:35:22;18.70;;;8.93;;
76495;SDS011;65329;52.544;4.662;2023-03-01T05:37:50;24.42;;;10.02;;
76495;SDS011;65329;52.544;4.662;2023-03-01T05:40:18;21.48;;;9.60;;
76495;SDS011;65329;52.544;4.662;2023-03-01T05:42:48;21.75;;;11.05;;
76495;SDS011;65329;52.544;4.662;2023-03-01T05:45:18;26.20;;;10.48;;
76495;SDS011;65329;52.544;4.662;2023-03-01T05:47:45;36.47;;;13.55;;
76495;SDS011;65329;52.544;4.662;2023-03-01T05:50:14;46.50;;;12.07;;
76495;SDS011;65329;52.544;4.662;2023-03-01T05:55:13;53.25;;;13.02;;
76495;SDS011;65329;52.544;4.662;2023-03-01T05:57:39;25.33;;;11.80;;
76495;SDS011;65329;52.544;4.662;2023-03-01T06:00:07;41.50;;;12.68;;
76495;SDS011;65329;52.544;4.662;2023-03-01T06:02:38;30.65;;;11.40;;
76495;SDS011;65329;52.544;4.662;2023-03-01T06:05:07;23.83;;;11.27;;
76495;SDS011;65329;52.544;4.662;2023-03-01T06:07:35;20.73;;;10.88;;
76495;SDS011;65329;52.544;4.662;2023-03-01T06:10:03;23.27;;;11.57;;
76495;SDS011;65329;52.544;4.662;2023-03-01T06:12:31;24.38;;;11.02;;
76495;SDS011;65329;52.544;4.662;2023-03-01T06:14:59;28.60;;;12.35;;
76495;SDS011;65329;52.544;4.662;2023-03-01T06:17:29;24.70;;;13.27;;
76495;SDS011;65329;52.544;4.662;2023-03-01T06:19:57;24.15;;;12.35;;
76495;SDS011;65329;52.544;4.662;2023-03-01T06:22:24;27.15;;;13.00;;
76495;SDS011;65329;52.544;4.662;2023-03-01T06:24:51;25.73;;;12.50;;
76495;SDS011;65329;52.544;4.662;2023-03-01T06:27:17;41.42;;;16.35;;
76495;SDS011;65329;52.544;4.662;2023-03-01T06:29:44;27.88;;;12.60;;
76495;SDS011;65329;52.544;4.662;2023-03-01T06:32:11;31.88;;;13.30;;
76495;SDS011;65329;52.544;4.662;2023-03-01T06:34:37;28.02;;;13.07;;
76495;SDS011;65329;52.544;4.662;2023-03-01T06:37:04;51.75;;;14.75;;
76495;SDS011;65329;52.544;4.662;2023-03-01T06:39:32;38.63;;;15.00;;
76495;SDS011;65329;52.544;4.662;2023-03-01T06:41:59;50.17;;;17.48;;
76495;SDS011;65329;52.544;4.662;2023-03-01T06:44:26;69.05;;;23.15;;
76495;SDS011;65329;52.544;4.662;2023-03-01T06:46:53;69.50;;;23.33;;
76495;SDS011;65329;52.544;4.662;2023-03-01T06:49:20;63.55;;;24.40;;
76495;SDS011;65329;52.544;4.662;2023-03-01T06:51:47;59.90;;;22.08;;
76495;SDS011;65329;52.544;4.662;2023-03-01T06:54:14;58.90;;;22.45;;
76495;SDS011;65329;52.544;4.662;2023-03-01T06:56:40;46.17;;;21.63;;
76495;SDS011;65329;52.544;4.662;2023-03-01T06:59:07;43.85;;;20.70;;
76495;SDS011;65329;52.544;4.662;2023-03-01T07:01:34;46.40;;;22.58;;
76495;SDS011;65329;52.544;4.662;2023-03-01T07:04:01;37.00;;;18.35;;
76495;SDS011;65329;52.544;4.662;2023-03-01T07:06:27;43.78;;;21.27;;
76495;SDS011;65329;52.544;4.662;2023-03-01T07:08:55;39.60;;;18.73;;
76495;SDS011;65329;52.544;4.662;2023-03-01T07:11:22;36.10;;;16.67;;
76495;SDS011;65329;52.544;4.662;2023-03-01T07:13:49;35.55;;;17.02;;
76495;SDS011;65329;52.544;4.662;2023-03-01T07:16:16;31.13;;;15.00;;
76495;SDS011;65329;52.544;4.662;2023-03-01T07:18:42;39.10;;;16.25;;
76495;SDS011;65329;52.544;4.662;2023-03-01T07:21:10;35.13;;;16.23;;
76495;SDS011;65329;52.544;4.662;2023-03-01T07:23:39;32.53;;;15.57;;
76495;SDS011;65329;52.544;4.662;2023-03-01T07:26:05;28.40;;;12.65;;
76495;SDS011;65329;52.544;4.662;2023-03-01T07:28:32;29.00;;;13.77;;
76495;SDS011;65329;52.544;4.662;2023-03-01T07:31:05;28.40;;;12.77;;
76495;SDS011;65329;52.544;4.662;2023-03-01T07:33:32;32.28;;;15.77;;
76495;SDS011;65329;52.544;4.662;2023-03-01T07:36:00;28.25;;;14.27;;
76495;SDS011;65329;52.544;4.662;2023-03-01T07:38:29;34.45;;;15.07;;
76495;SDS011;65329;52.544;4.662;2023-03-01T07:40:59;30.27;;;14.82;;
76495;SDS011;65329;52.544;4.662;2023-03-01T07:43:27;29.55;;;14.65;;
76495;SDS011;65329;52.544;4.662;2023-03-01T07:45:58;30.65;;;14.88;;
76495;SDS011;65329;52.544;4.662;2023-03-01T07:48:27;31.63;;;14.27;;
76495;SDS011;65329;52.544;4.662;2023-03-01T07:50:57;23.80;;;13.00;;
76495;SDS011;65329;52.544;4.662;2023-03-01T07:53:25;30.45;;;15.07;;
76495;SDS011;65329;52.544;4.662;2023-03-01T07:56:04;29.70;;;14.55;;
76495;SDS011;65329;52.544;4.662;2023-03-01T07:58:34;30.17;;;13.52;;
76495;SDS011;65329;52.544;4.662;2023-03-01T08:01:03;29.73;;;13.85;;
76495;SDS011;65329;52.544;4.662;2023-03-01T08:03:31;28.60;;;13.88;;
76495;SDS011;65329;52.544;4.662;2023-03-01T08:05:59;22.85;;;14.02;;
76495;SDS011;65329;52.544;4.662;2023-03-01T08:08:27;22.58;;;14.13;;
76495;SDS011;65329;52.544;4.662;2023-03-01T08:10:57;20.95;;;13.07;;
76495;SDS011;65329;52.544;4.662;2023-03-01T08:13:25;20.73;;;13.52;;
76495;SDS011;65329;52.544;4.662;2023-03-01T08:15:52;21.50;;;12.95;;
76495;SDS011;65329;52.544;4.662;2023-03-01T08:18:20;21.80;;;13.82;;
76495;SDS011;65329;52.544;4.662;2023-03-01T08:20:48;20.98;;;14.02;;
76495;SDS011;65329;52.544;4.662;2023-03-01T08:23:14;19.42;;;13.35;;
76495;SDS011;65329;52.544;4.662;2023-03-01T08:25:41;19.50;;;13.32;;
76495;SDS011;65329;52.544;4.662;2023-03-01T08:28:10;19.90;;;13.20;;
76495;SDS011;65329;52.544;4.662;2023-03-01T08:30:37;19.20;;;13.48;;
76495;SDS011;65329;52.544;4.662;2023-03-01T08:33:04;18.33;;;11.88;;
76495;SDS011;65329;52.544;4.662;2023-03-01T08:35:32;18.13;;;11.43;;
76495;SDS011;65329;52.544;4.662;2023-03-01T08:37:59;19.70;;;11.60;;
76495;SDS011;65329;52.544;4.662;2023-03-01T08:40:26;17.27;;;11.65;;
76495;SDS011;65329;52.544;4.662;2023-03-01T08:42:53;16.88;;;11.50;;
76495;SDS011;65329;52.544;4.662;2023-03-01T08:45:19;19.08;;;12.02;;
76495;SDS011;65329;52.544;4.662;2023-03-01T08:47:52;18.98;;;12.82;;
76495;SDS011;65329;52.544;4.662;2023-03-01T08:50:34;17.33;;;11.63;;
76495;SDS011;65329;52.544;4.662;2023-03-01T08:53:00;17.95;;;12.38;;
76495;SDS011;65329;52.544;4.662;2023-03-01T08:55:27;18.40;;;12.43;;
76495;SDS011;65329;52.544;4.662;2023-03-01T08:57:55;17.27;;;11.15;;
76495;SDS011;65329;52.544;4.662;2023-03-01T09:00:22;16.33;;;11.38;;
76495;SDS011;65329;52.544;4.662;2023-03-01T09:02:50;16.52;;;12.15;;
76495;SDS011;65329;52.544;4.662;2023-03-01T09:05:17;16.88;;;10.48;;
76495;SDS011;65329;52.544;4.662;2023-03-01T09:07:52;16.20;;;10.93;;
76495;SDS011;65329;52.544;4.662;2023-03-01T09:10:19;15.38;;;11.32;;
76495;SDS011;65329;52.544;4.662;2023-03-01T09:12:46;19.55;;;11.73;;
76495;SDS011;65329;52.544;4.662;2023-03-01T09:15:13;15.93;;;11.27;;
76495;SDS011;65329;52.544;4.662;2023-03-01T09:17:40;16.55;;;11.43;;
76495;SDS011;65329;52.544;4.662;2023-03-01T09:20:07;15.57;;;11.27;;
76495;SDS011;65329;52.544;4.662;2023-03-01T09:22:34;19.17;;;12.48;;
76495;SDS011;65329;52.544;4.662;2023-03-01T09:25:04;16.35;;;11.27;;
76495;SDS011;65329;52.544;4.662;2023-03-01T09:27:31;16.13;;;9.70;;
76495;SDS011;65329;52.544;4.662;2023-03-01T09:29:58;16.35;;;11.35;;
76495;SDS011;65329;52.544;4.662;2023-03-01T09:32:25;17.80;;;11.25;;
76495;SDS011;65329;52.544;4.662;2023-03-01T09:34:52;18.25;;;12.23;;
76495;SDS011;65329;52.544;4.662;2023-03-01T09:37:34;17.60;;;12.20;;
76495;SDS011;65329;52.544;4.662;2023-03-01T09:40:02;16.08;;;11.00;;
76495;SDS011;65329;52.544;4.662;2023-03-01T09:42:35;17.02;;;10.88;;
76495;SDS011;65329;52.544;4.662;2023-03-01T09:45:11;15.77;;;10.52;;
76495;SDS011;65329;52.544;4.662;2023-03-01T09:47:54;16.95;;;10.98;;
76495;SDS011;65329;52.544;4.662;2023-03-01T09:50:22;17.73;;;11.50;;
76495;SDS011;65329;52.544;4.662;2023-03-01T09:52:55;18.42;;;12.05;;
76495;SDS011;65329;52.544;4.662;2023-03-01T09:55:26;17.98;;;12.75;;
76495;SDS011;65329;52.544;4.662;2023-03-01T09:58:01;16.58;;;11.50;;
76495;SDS011;65329;52.544;4.662;2023-03-01T10:00:53;15.77;;;10.52;;
76495;SDS011;65329;52.544;4.662;2023-03-01T10:03:32;15.90;;;10.75;;
76495;SDS011;65329;52.544;4.662;2023-03-01T10:06:10;16.95;;;11.27;;
76495;SDS011;65329;52.544;4.662;2023-03-01T10:09:18;13.60;;;10.48;;
76495;SDS011;65329;52.544;4.662;2023-03-01T10:11:48;17.77;;;11.10;;
76495;SDS011;65329;52.544;4.662;2023-03-01T10:19:47;13.75;;;9.90;;
76495;SDS011;65329;52.544;4.662;2023-03-01T10:22:17;17.60;;;10.95;;
76495;SDS011;65329;52.544;4.662;2023-03-01T10:24:47;13.77;;;10.40;;
76495;SDS011;65329;52.544;4.662;2023-03-01T10:32:45;14.93;;;9.20;;
76495;SDS011;65329;52.544;4.662;2023-03-01T10:35:22;12.13;;;9.13;;
76495;SDS011;65329;52.544;4.662;2023-03-01T10:37:58;10.43;;;7.53;;
76495;SDS011;65329;52.544;4.662;2023-03-01T10:40:33;11.80;;;8.20;;
76495;SDS011;65329;52.544;4.662;2023-03-01T10:43:02;12.23;;;9.73;;
76495;SDS011;65329;52.544;4.662;2023-03-01T10:45:33;12.20;;;9.23;;
76495;SDS011;65329;52.544;4.662;2023-03-01T10:50:40;15.30;;;10.02;;
76495;SDS011;65329;52.544;4.662;2023-03-01T10:56:05;11.77;;;9.18;;
76495;SDS011;65329;52.544;4.662;2023-03-01T10:58:36;11.30;;;8.20;;
76495;SDS011;65329;52.544;4.662;2023-03-01T11:01:06;11.02;;;8.30;;
76495;SDS011;65329;52.544;4.662;2023-03-01T11:04:10;10.52;;;7.53;;
76495;SDS011;65329;52.544;4.662;2023-03-01T11:06:40;9.32;;;6.43;;
76495;SDS011;65329;52.544;4.662;2023-03-01T11:09:21;10.93;;;6.18;;
76495;SDS011;65329;52.544;4.662;2023-03-01T11:11:51;12.68;;;7.28;;
76495;SDS011;65329;52.544;4.662;2023-03-01T11:14:24;11.50;;;8.18;;
76495;SDS011;65329;52.544;4.662;2023-03-01T11:17:00;13.32;;;7.85;;
76495;SDS011;65329;52.544;4.662;2023-03-01T11:23:00;14.77;;;9.45;;
76495;SDS011;65329;52.544;4.662;2023-03-01T11:25:35;15.35;;;9.50;;
76495;SDS011;65329;52.544;4.662;2023-03-01T11:28:05;13.57;;;8.48;;
76495;SDS011;65329;52.544;4.662;2023-03-01T11:30:53;11.48;;;7.50;;
76495;SDS011;65329;52.544;4.662;2023-03-01T11:36:24;10.63;;;6.90;;
76495;SDS011;65329;52.544;4.662;2023-03-01T11:38:53;8.88;;;6.05;;
76495;SDS011;65329;52.544;4.662;2023-03-01T11:41:31;7.75;;;4.90;;
76495;SDS011;65329;52.544;4.662;2023-03-01T11:44:03;9.50;;;6.22;;
76495;SDS011;65329;52.544;4.662;2023-03-01T11:49:48;10.20;;;5.70;;
76495;SDS011;65329;52.544;4.662;2023-03-01T11:52:40;9.25;;;6.57;;
76495;SDS011;65329;52.544;4.662;2023-03-01T11:58:20;10.25;;;6.97;;
76495;SDS011;65329;52.544;4.662;2023-03-01T12:03:43;8.02;;;4.97;;
76495;SDS011;65329;52.544;4.662;2023-03-01T12:14:55;8.43;;;5.07;;
76495;SDS011;65329;52.544;4.662;2023-03-01T12:20:54;9.48;;;6.97;;
76495;SDS011;65329;52.544;4.662;2023-03-01T12:37:19;12.02;;;6.72;;
76495;SDS011;65329;52.544;4.662;2023-03-01T12:43:09;9.40;;;5.90;;
76495;SDS011;65329;52.544;4.662;2023-03-01T12:46:02;11.15;;;6.93;;
76495;SDS011;65329;52.544;4.662;2023-03-01T12:51:12;11.65;;;7.82;;
76495;SDS011;65329;52.544;4.662;2023-03-01T12:53:45;7.60;;;4.93;;
76495;SDS011;65329;52.544;4.662;2023-03-01T12:56:24;10.82;;;5.50;;
76495;SDS011;65329;52.544;4.662;2023-03-01T13:07:24;10.43;;;7.25;;
76495;SDS011;65329;52.544;4.662;2023-03-01T13:10:19;8.10;;;4.75;;
76495;SDS011;65329;52.544;4.662;2023-03-01T13:15:26;7.97;;;5.00;;
76495;SDS011;65329;52.544;4.662;2023-03-01T13:29:25;6.82;;;4.82;;
76495;SDS011;65329;52.544;4.662;2023-03-01T13:34:41;10.05;;;6.30;;
76495;SDS011;65329;52.544;4.662;2023-03-01T13:37:10;8.25;;;4.97;;
76495;SDS011;65329;52.544;4.662;2023-03-01T13:39:46;9.63;;;5.72;;
76495;SDS011;65329;52.544;4.662;2023-03-01T13:42:34;10.85;;;6.25;;
76495;SDS011;65329;52.544;4.662;2023-03-01T13:45:15;8.43;;;4.95;;
76495;SDS011;65329;52.544;4.662;2023-03-01T13:50:59;7.75;;;4.82;;
76495;SDS011;65329;52.544;4.662;2023-03-01T13:53:31;10.80;;;5.82;;
76495;SDS011;65329;52.544;4.662;2023-03-01T13:56:07;9.27;;;5.47;;
76495;SDS011;65329;52.544;4.662;2023-03-01T13:58:49;13.30;;;6.80;;
76495;SDS011;65329;52.544;4.662;2023-03-01T14:01:27;13.43;;;7.57;;
76495;SDS011;65329;52.544;4.662;2023-03-01T14:03:58;13.23;;;7.22;;
76495;SDS011;65329;52.544;4.662;2023-03-01T14:06:47;12.13;;;5.95;;
76495;SDS011;65329;52.544;4.662;2023-03-01T14:09:20;14.00;;;7.03;;
76495;SDS011;65329;52.544;4.662;2023-03-01T14:20:20;10.02;;;5.93;;
76495;SDS011;65329;52.544;4.662;2023-03-01T14:22:49;16.92;;;8.27;;
76495;SDS011;65329;52.544;4.662;2023-03-01T14:25:27;13.15;;;7.20;;
76495;SDS011;65329;52.544;4.662;2023-03-01T14:28:03;13.48;;;8.77;;
76495;SDS011;65329;52.544;4.662;2023-03-01T14:30:42;13.98;;;8.18;;
76495;SDS011;65329;52.544;4.662;2023-03-01T14:33:30;14.70;;;7.88;;
76495;SDS011;65329;52.544;4.662;2023-03-01T14:36:03;17.45;;;9.25;;
76495;SDS011;65329;52.544;4.662;2023-03-01T14:38:41;17.67;;;9.93;;
76495;SDS011;65329;52.544;4.662;2023-03-01T14:41:16;13.95;;;7.97;;
76495;SDS011;65329;52.544;4.662;2023-03-01T14:43:57;13.90;;;7.57;;
76495;SDS011;65329;52.544;4.662;2023-03-01T14:46:37;14.05;;;8.80;;
76495;SDS011;65329;52.544;4.662;2023-03-01T14:49:13;15.65;;;9.30;;
76495;SDS011;65329;52.544;4.662;2023-03-01T14:51:58;16.13;;;9.02;;
76495;SDS011;65329;52.544;4.662;2023-03-01T14:54:30;16.05;;;8.65;;
76495;SDS011;65329;52.544;4.662;2023-03-01T14:57:18;12.90;;;6.70;;
76495;SDS011;65329;52.544;4.662;2023-03-01T14:59:51;9.55;;;6.15;;
76495;SDS011;65329;52.544;4.662;2023-03-01T15:02:22;11.90;;;7.40;;
76495;SDS011;65329;52.544;4.662;2023-03-01T15:04:52;13.85;;;7.68;;
76495;SDS011;65329;52.544;4.662;2023-03-01T15:07:30;16.70;;;9.65;;
76495;SDS011;65329;52.544;4.662;2023-03-01T15:10:00;16.95;;;8.57;;
76495;SDS011;65329;52.544;4.662;2023-03-01T15:12:38;14.63;;;8.85;;
76495;SDS011;65329;52.544;4.662;2023-03-01T15:17:59;14.25;;;7.75;;
76495;SDS011;65329;52.544;4.662;2023-03-01T15:20:29;17.65;;;8.60;;
76495;SDS011;65329;52.544;4.662;2023-03-01T15:23:01;13.07;;;7.40;;
76495;SDS011;65329;52.544;4.662;2023-03-01T15:25:30;17.42;;;9.48;;
76495;SDS011;65329;52.544;4.662;2023-03-01T15:27:59;12.65;;;7.25;;
76495;SDS011;65329;52.544;4.662;2023-03-01T15:30:32;15.23;;;8.40;;
76495;SDS011;65329;52.544;4.662;2023-03-01T15:33:16;14.50;;;7.70;;
76495;SDS011;65329;52.544;4.662;2023-03-01T15:35:49;13.43;;;8.07;;
76495;SDS011;65329;52.544;4.662;2023-03-01T15:40:57;15.35;;;8.80;;
76495;SDS011;65329;52.544;4.662;2023-03-01T15:46:17;17.15;;;8.52;;
76495;SDS011;65329;52.544;4.662;2023-03-01T15:48:48;15.68;;;8.27;;
76495;SDS011;65329;52.544;4.662;2023-03-01T15:51:20;13.88;;;8.15;;
76495;SDS011;65329;52.544;4.662;2023-03-01T15:53:54;13.85;;;7.70;;
76495;SDS011;65329;52.544;4.662;2023-03-01T15:56:22;12.20;;;7.03;;
76495;SDS011;65329;52.544;4.662;2023-03-01T15:58:49;16.10;;;9.55;;
76495;SDS011;65329;52.544;4.662;2023-03-01T16:01:17;11.63;;;6.68;;
76495;SDS011;65329;52.544;4.662;2023-03-01T16:03:44;17.05;;;8.20;;
76495;SDS011;65329;52.544;4.662;2023-03-01T16:06:13;13.02;;;7.88;;
76495;SDS011;65329;52.544;4.662;2023-03-01T16:08:40;13.60;;;7.93;;
76495;SDS011;65329;52.544;4.662;2023-03-01T16:11:10;13.50;;;7.75;;
76495;SDS011;65329;52.544;4.662;2023-03-01T16:13:41;18.13;;;8.77;;
76495;SDS011;65329;52.544;4.662;2023-03-01T16:16:09;13.30;;;7.10;;
76495;SDS011;65329;52.544;4.662;2023-03-01T16:18:39;10.02;;;6.63;;
76495;SDS011;65329;52.544;4.662;2023-03-01T16:21:05;16.30;;;7.25;;
76495;SDS011;65329;52.544;4.662;2023-03-01T16:23:32;12.18;;;7.07;;
76495;SDS011;65329;52.544;4.662;2023-03-01T16:25:59;16.17;;;7.55;;
76495;SDS011;65329;52.544;4.662;2023-03-01T16:28:27;15.27;;;8.23;;
76495;SDS011;65329;52.544;4.662;2023-03-01T16:30:55;15.55;;;9.13;;
76495;SDS011;65329;52.544;4.662;2023-03-01T16:33:23;13.10;;;8.52;;
76495;SDS011;65329;52.544;4.662;2023-03-01T16:35:59;18.80;;;8.93;;
76495;SDS011;65329;52.544;4.662;2023-03-01T16:38:28;14.93;;;8.82;;
76495;SDS011;65329;52.544;4.662;2023-03-01T16:40:57;13.25;;;8.48;;
76495;SDS011;65329;52.544;4.662;2023-03-01T16:43:24;17.42;;;8.85;;
76495;SDS011;65329;52.544;4.662;2023-03-01T16:45:52;16.05;;;8.93;;
76495;SDS011;65329;52.544;4.662;2023-03-01T16:48:19;15.10;;;8.20;;
76495;SDS011;65329;52.544;4.662;2023-03-01T16:50:54;16.42;;;7.97;;
76495;SDS011;65329;52.544;4.662;2023-03-01T16:53:27;15.23;;;8.48;;
76495;SDS011;65329;52.544;4.662;2023-03-01T16:55:55;19.55;;;9.60;;
76495;SDS011;65329;52.544;4.662;2023-03-01T16:58:23;13.45;;;7.50;;
76495;SDS011;65329;52.544;4.662;2023-03-01T17:00:52;12.43;;;7.38;;